createdAt,value
2019-03-22T00:01:43.497Z,84.20
2019-03-22T00:06:48.367Z,84.60
2019-03-22T00:11:53.416Z,84.60
2019-03-22T00:16:58.161Z,84.50
2019-03-22T00:22:02.674Z,84.50
2019-03-22T00:27:15.888Z,85.00
2019-03-22T00:32:13.612Z,84.50
2019-03-22T00:37:19.276Z,84.40
2019-03-22T00:42:24.018Z,84.40
2019-03-22T00:47:28.454Z,84.50
2019-03-22T00:52:33.194Z,84.60
2019-03-22T00:57:37.629Z,84.10
2019-03-22T01:02:42.370Z,84.30
2019-03-22T01:07:48.036Z,84.70
2019-03-22T01:12:54.004Z,84.00
2019-03-22T01:17:58.445Z,84.10
2019-03-22T01:23:03.180Z,83.80
2019-03-22T01:28:08.517Z,83.60
2019-03-22T01:33:14.507Z,83.40
2019-03-22T01:38:19.249Z,83.20
2019-03-22T01:43:23.992Z,83.80
2019-03-22T01:48:28.733Z,83.70
2019-03-22T01:53:34.397Z,83.80
2019-03-22T01:58:38.829Z,83.50
2019-03-22T02:03:43.573Z,83.60
2019-03-22T02:08:47.982Z,83.50
2019-03-22T02:13:53.057Z,83.80
2019-03-22T02:18:57.799Z,83.80
2019-03-22T02:24:02.541Z,84.10
2019-03-22T02:29:07.897Z,84.20
2019-03-22T02:34:12.946Z,84.10
2019-03-22T02:39:18.314Z,84.60
2019-03-22T02:44:23.044Z,84.50
2019-03-22T02:49:28.101Z,84.50
2019-03-22T02:54:33.126Z,84.90
2019-03-22T02:59:37.864Z,84.50
2019-03-22T03:04:42.603Z,84.20
2019-03-22T03:09:47.677Z,84.30
2019-03-22T03:14:52.803Z,85.20
2019-03-22T03:19:57.778Z,86.00
2019-03-22T03:25:02.519Z,87.40
2019-03-22T03:30:15.841Z,88.40
2019-03-22T03:35:20.600Z,88.50
2019-03-22T03:40:25.341Z,88.60
2019-03-22T03:45:34.740Z,89.00
2019-03-22T03:50:39.742Z,88.70
2019-03-22T03:55:44.491Z,88.40
2019-03-22T04:00:49.233Z,87.90
2019-03-22T04:05:53.972Z,88.30
2019-03-22T04:10:58.710Z,88.90
2019-03-22T04:16:03.852Z,88.50
2019-03-22T04:21:08.812Z,88.30
2019-03-22T04:26:13.556Z,88.60
2019-03-22T04:31:18.292Z,89.20
2019-03-22T04:36:23.034Z,89.20
2019-03-22T04:41:27.773Z,89.00
2019-03-22T04:46:32.797Z,88.90
2019-03-22T04:51:38.178Z,88.70
2019-03-22T04:56:43.164Z,89.00
2019-03-22T05:01:49.816Z,88.90
2019-03-22T05:06:54.882Z,88.10
2019-03-22T05:12:02.304Z,88.40
2019-03-22T05:17:08.313Z,88.20
2019-03-22T05:22:15.847Z,88.60
2019-03-22T05:27:21.321Z,88.00
2019-03-22T05:32:26.233Z,87.40
2019-03-22T05:37:31.280Z,87.90
2019-03-22T05:42:36.274Z,87.50
2019-03-22T05:47:41.092Z,87.20
2019-03-22T05:52:45.832Z,86.60
2019-03-22T05:57:50.675Z,86.80
2019-03-22T06:02:55.624Z,86.10
2019-03-22T06:08:00.365Z,84.60
2019-03-22T06:13:06.646Z,85.70
2019-03-22T06:18:11.692Z,85.60
2019-03-22T06:23:16.372Z,85.20
2019-03-22T06:28:21.482Z,84.60
2019-03-22T06:33:26.228Z,84.20
2019-03-22T06:38:30.973Z,83.90
2019-03-22T06:43:35.559Z,83.10
2019-03-22T06:48:40.449Z,83.20
2019-03-22T06:53:45.193Z,83.00
2019-03-22T06:58:50.009Z,82.60
2019-03-22T07:03:55.166Z,82.90
2019-03-22T07:08:59.913Z,83.20
2019-03-22T07:14:04.939Z,82.70
2019-03-22T07:19:10.131Z,82.50
2019-03-22T07:24:14.873Z,82.40
2019-03-22T07:29:19.557Z,81.90
2019-03-22T07:34:24.666Z,81.60
2019-03-22T07:39:29.404Z,81.50
2019-03-22T07:44:34.145Z,81.20
2019-03-22T07:49:38.922Z,80.90
2019-03-22T07:54:43.941Z,79.80
2019-03-22T07:59:48.625Z,78.30
2019-03-22T08:04:54.648Z,78.00
2019-03-22T08:09:59.464Z,78.00
2019-03-22T08:15:08.238Z,77.30
2019-03-22T08:20:12.569Z,75.60
2019-03-22T08:25:17.337Z,75.50
2019-03-22T08:30:22.165Z,73.40
2019-03-22T08:35:27.100Z,74.10
2019-03-22T08:40:32.155Z,70.20
2019-03-22T08:45:37.490Z,70.20
2019-03-22T08:50:42.545Z,69.30
2019-03-22T08:55:47.609Z,68.20
2019-03-22T09:00:57.638Z,68.70
2019-03-22T09:05:59.736Z,68.50
2019-03-22T09:11:04.937Z,67.10
2019-03-22T09:16:09.954Z,68.30
2019-03-22T09:21:15.379Z,69.80
2019-03-22T09:26:20.229Z,68.90
2019-03-22T09:31:25.127Z,69.00
2019-03-22T09:36:30.142Z,65.40
2019-03-22T09:41:35.188Z,66.00
2019-03-22T09:46:40.220Z,66.30
2019-03-22T09:51:44.855Z,64.70
2019-03-22T09:56:49.738Z,63.30
2019-03-22T10:01:54.461Z,64.40
2019-03-22T10:06:59.511Z,64.10
2019-03-22T10:12:04.594Z,64.10
2019-03-22T10:17:09.621Z,66.00
2019-03-22T10:22:14.639Z,63.30
2019-03-22T10:27:19.706Z,64.30
2019-03-22T10:32:24.427Z,63.40
2019-03-22T10:37:29.526Z,65.50
2019-03-22T10:42:34.266Z,65.40
2019-03-22T10:47:39.355Z,65.80
2019-03-22T10:52:44.337Z,65.20
2019-03-22T10:57:49.678Z,65.80
2019-03-22T11:02:54.743Z,63.90
2019-03-22T11:07:59.482Z,62.70
2019-03-22T11:13:04.303Z,57.00
2019-03-22T11:18:09.278Z,58.10
2019-03-22T11:23:14.093Z,57.50
2019-03-22T11:28:19.070Z,58.70
2019-03-22T11:33:23.806Z,57.70
2019-03-22T11:38:28.531Z,59.30
2019-03-22T11:43:33.374Z,60.00
2019-03-22T11:48:38.348Z,62.50
2019-03-22T11:53:43.389Z,63.00
2019-03-22T11:58:48.133Z,63.40
2019-03-22T12:03:54.493Z,62.00
2019-03-22T12:08:59.364Z,61.70
2019-03-22T12:14:05.427Z,61.10
2019-03-22T12:19:10.094Z,59.40
2019-03-22T12:24:15.218Z,58.10
2019-03-22T12:29:19.961Z,57.30
2019-03-22T12:34:24.996Z,56.20
2019-03-22T12:39:29.931Z,55.70
2019-03-22T12:44:34.801Z,58.00
2019-03-22T12:49:40.463Z,59.50
2019-03-22T12:54:45.204Z,59.30
2019-03-22T12:59:49.953Z,58.20
2019-03-22T13:04:54.662Z,57.50
2019-03-22T13:09:59.430Z,57.90
2019-03-22T13:15:04.996Z,56.50
2019-03-22T13:20:11.897Z,53.80
2019-03-22T13:25:18.189Z,54.60
2019-03-22T13:30:38.967Z,56.70
2019-03-22T13:35:44.021Z,50.60
2019-03-22T13:40:48.769Z,48.90
2019-03-22T13:45:53.599Z,49.00
2019-03-22T13:50:58.561Z,50.60
2019-03-22T13:56:03.314Z,49.30
2019-03-22T14:01:08.045Z,51.20
2019-03-22T14:06:13.098Z,45.80
2019-03-22T14:11:17.835Z,47.30
2019-03-22T14:16:22.578Z,49.90
2019-03-22T14:21:27.607Z,49.70
2019-03-22T14:26:32.681Z,49.70
2019-03-22T14:31:37.332Z,49.20
2019-03-22T14:36:42.165Z,49.10
2019-03-22T14:41:47.209Z,51.00
2019-03-22T14:46:52.033Z,48.80
2019-03-22T14:51:56.983Z,48.50
2019-03-22T14:57:02.047Z,48.70
2019-03-22T15:02:07.403Z,49.10
2019-03-22T15:07:19.572Z,49.10
2019-03-22T15:12:18.606Z,46.20
2019-03-22T15:17:25.011Z,45.50
2019-03-22T15:22:40.501Z,44.80
2019-03-22T15:27:47.093Z,45.60
2019-03-22T15:33:02.584Z,47.50
2019-03-22T15:38:27.088Z,48.50
2019-03-22T15:43:32.013Z,50.10
2019-03-22T15:48:36.775Z,50.50
2019-03-22T15:53:41.599Z,50.60
2019-03-22T15:58:46.334Z,51.50
2019-03-22T16:03:51.093Z,52.70
2019-03-22T16:08:56.057Z,52.10
2019-03-22T16:14:00.728Z,53.20
2019-03-22T16:19:05.546Z,53.30
2019-03-22T16:24:10.273Z,54.30
2019-03-22T16:29:16.247Z,54.20
2019-03-22T16:34:21.296Z,54.50
2019-03-22T16:39:26.035Z,55.40
2019-03-22T16:44:30.777Z,56.30
2019-03-22T16:49:35.681Z,57.20
2019-03-22T16:54:40.567Z,57.80
2019-03-22T16:59:45.288Z,58.40
2019-03-22T17:04:50.052Z,59.30
2019-03-22T17:09:54.779Z,61.00
2019-03-22T17:15:00.766Z,61.80
2019-03-22T17:20:07.348Z,61.60
2019-03-22T17:25:12.093Z,62.20
2019-03-22T17:30:18.302Z,62.50
2019-03-22T17:35:23.419Z,63.30
2019-03-22T17:40:28.158Z,66.00
2019-03-22T17:45:33.208Z,65.80
2019-03-22T17:50:37.926Z,66.80
2019-03-22T17:55:43.084Z,66.60
2019-03-22T18:00:48.354Z,67.90
2019-03-22T18:05:53.075Z,69.30
2019-03-22T18:10:58.145Z,69.10
2019-03-22T18:16:03.194Z,68.70
2019-03-22T18:21:07.937Z,70.00
2019-03-22T18:26:12.709Z,72.50
2019-03-22T18:31:17.728Z,72.50
2019-03-22T18:36:23.774Z,72.60
2019-03-22T18:41:28.756Z,73.00
2019-03-22T18:46:34.084Z,72.90
2019-03-22T18:51:38.845Z,73.40
2019-03-22T18:56:43.561Z,74.60
2019-03-22T19:01:48.301Z,74.20
2019-03-22T19:06:53.153Z,74.10
2019-03-22T19:11:57.994Z,75.10
2019-03-22T19:17:02.875Z,75.40
2019-03-22T19:22:07.681Z,75.10
2019-03-22T19:27:12.666Z,75.30
2019-03-22T19:32:17.308Z,76.20
2019-03-22T19:37:22.134Z,76.60
2019-03-22T19:42:26.877Z,76.50
2019-03-22T19:47:31.926Z,76.10
2019-03-22T19:52:36.746Z,75.70
2019-03-22T19:57:41.732Z,75.60
2019-03-22T20:02:46.764Z,75.70
2019-03-22T20:07:51.481Z,75.70
2019-03-22T20:12:56.485Z,76.10
2019-03-22T20:18:01.990Z,76.10
2019-03-22T20:23:06.966Z,77.60
2019-03-22T20:28:12.015Z,77.70
2019-03-22T20:33:17.062Z,78.00
2019-03-22T20:38:21.787Z,78.90
2019-03-22T20:43:26.528Z,79.00
2019-03-22T20:48:31.591Z,79.30
2019-03-22T20:53:36.333Z,79.00
2019-03-22T20:58:41.381Z,79.00
2019-03-22T21:03:46.123Z,79.00
2019-03-22T21:08:50.850Z,78.70
2019-03-22T21:13:55.919Z,78.50
2019-03-22T21:19:00.963Z,79.10
2019-03-22T21:24:05.681Z,78.30
2019-03-22T21:29:10.431Z,77.60
2019-03-22T21:34:15.266Z,77.50
2019-03-22T21:39:20.237Z,77.70
2019-03-22T21:44:24.864Z,77.60
2019-03-22T21:49:30.222Z,77.90
2019-03-22T21:54:35.077Z,78.10
2019-03-22T21:59:40.126Z,79.00
2019-03-22T22:04:44.867Z,79.00
2019-03-22T22:09:49.587Z,79.20
2019-03-22T22:14:54.351Z,78.30
2019-03-22T22:19:59.400Z,77.60
2019-03-22T22:25:05.371Z,77.90
2019-03-22T22:30:11.610Z,79.20
2019-03-22T22:35:16.698Z,78.70
2019-03-22T22:40:21.438Z,78.60
2019-03-22T22:45:26.180Z,79.10
2019-03-22T22:50:30.922Z,77.20
2019-03-22T22:55:35.971Z,76.20
2019-03-22T23:00:42.235Z,76.70
2019-03-22T23:05:47.581Z,76.60
2019-03-22T23:10:52.654Z,76.20
2019-03-22T23:15:57.474Z,77.20
2019-03-22T23:21:02.554Z,77.60
2019-03-22T23:26:07.494Z,77.60
2019-03-22T23:31:12.543Z,78.60
2019-03-22T23:36:20.472Z,78.50
2019-03-22T23:41:24.156Z,78.10
2019-03-22T23:46:28.998Z,77.60
2019-03-22T23:51:33.967Z,78.20
2019-03-22T23:56:38.802Z,78.00
